Time;durP1;ratioP1;P1;durP2;ratioP2;P2;SDS_P1;SDS_P2;PMS_P1;PMS_P2;Temp;Humidity;BMP_temperature;BMP_pressure;BME280_temperature;BME280_humidity;BME280_pressure;Samples;Min_cycle;Max_cycle;Signal;HPM_P1;HPM_P2
2024/02/16 00:00:07;;;;;;;4.53;2.13;;;;;;;13.12;91.78;100310.06;5091603;28;20700;-75
2024/02/16 00:02:33;;;;;;;3.73;2.03;;;;;;;12.91;91.35;100312.47;5097083;28;20223;-76
2024/02/16 00:04:59;;;;;;;2.50;1.80;;;;;;;12.95;90.59;100328.09;5091708;28;20196;-75
2024/02/16 00:07:26;;;;;;;1.73;1.40;;;;;;;12.94;88.53;100369.13;5091046;28;20254;-76
2024/02/16 00:09:52;;;;;;;3.13;1.60;;;;;;;13.10;88.28;100388.75;5091505;28;20206;-76
2024/02/16 00:12:19;;;;;;;1.97;1.60;;;;;;;13.10;87.28;100388.75;5091640;28;20207;-76
2024/02/16 00:14:47;;;;;;;5.47;1.70;;;;;;;13.20;87.94;100394.59;5099913;28;20203;-75
2024/02/16 00:17:13;;;;;;;1.70;1.60;;;;;;;13.12;88.05;100404.41;5090517;28;20646;-76
2024/02/16 00:19:39;;;;;;;3.93;1.50;;;;;;;13.04;89.26;100388.94;5091015;28;20670;-76
2024/02/16 00:22:07;;;;;;;1.57;1.43;;;;;;;12.99;89.84;100369.03;5091391;28;20676;-76
2024/02/16 00:24:33;;;;;;;2.57;1.47;;;;;;;12.84;90.13;100358.09;5091036;28;20317;-76
2024/02/16 00:27:00;;;;;;;2.90;1.43;;;;;;;12.86;90.59;100343.19;5090734;28;20701;-76
2024/02/16 00:29:26;;;;;;;4.27;1.63;;;;;;;12.86;90.87;100327.47;5092976;28;20207;-76
2024/02/16 00:31:55;;;;;;;3.23;1.53;;;;;;;12.88;90.78;100316.94;5093053;28;20265;-76
2024/02/16 00:34:21;;;;;;;3.53;1.50;;;;;;;12.81;91.09;100316.28;5091251;28;20204;-76
2024/02/16 00:36:48;;;;;;;2.70;1.40;;;;;;;12.79;90.69;100309.38;5090691;28;20300;-76
2024/02/16 00:39:15;;;;;;;3.70;1.50;;;;;;;12.74;90.55;100309.50;5091306;28;20204;-76
2024/02/16 00:41:41;;;;;;;3.10;1.60;;;;;;;12.73;90.03;100299.09;5091073;28;20212;-76
2024/02/16 00:44:07;;;;;;;2.17;1.60;;;;;;;12.52;89.82;100310.13;5091514;28;20220;-76
2024/02/16 00:46:34;;;;;;;1.77;1.40;;;;;;;12.35;91.05;100280.97;5090296;28;20272;-76
2024/02/16 00:49:01;;;;;;;3.50;1.30;;;;;;;12.35;91.84;100259.16;5091180;28;20215;-76
2024/02/16 00:51:29;;;;;;;2.20;1.63;;;;;;;12.29;92.26;100253.22;5092113;28;20265;-76
2024/02/16 00:53:55;;;;;;;3.43;1.53;;;;;;;12.35;92.48;100246.06;5090599;28;20208;-75
2024/02/16 00:56:22;;;;;;;2.37;1.77;;;;;;;12.13;92.79;100236.25;5090090;28;20340;-76
2024/02/16 00:58:48;;;;;;;2.87;1.57;;;;;;;12.19;93.80;100222.09;5091480;28;20204;-76
2024/02/16 01:01:15;;;;;;;1.67;1.50;;;;;;;12.16;94.00;100211.75;5094291;28;20199;-76
2024/02/16 01:03:41;;;;;;;2.70;1.57;;;;;;;12.21;93.89;100196.75;5093358;28;20682;-76
2024/02/16 01:06:10;;;;;;;2.03;1.50;;;;;;;12.23;93.35;100200.19;5084776;28;20307;-74
2024/02/16 01:08:36;;;;;;;2.00;1.53;;;;;;;12.20;93.50;100201.13;5090670;28;20287;-76
2024/02/16 01:11:03;;;;;;;4.37;1.80;;;;;;;12.25;93.10;100195.75;5090827;28;20257;-75
2024/02/16 01:13:29;;;;;;;4.13;1.70;;;;;;;12.24;91.85;100220.22;5084843;28;20283;-75
2024/02/16 01:15:56;;;;;;;3.03;1.57;;;;;;;12.35;91.56;100218.16;5090019;28;20236;-76
2024/02/16 01:18:22;;;;;;;3.00;1.60;;;;;;;12.22;91.49;100228.13;5090799;28;20208;-76
2024/02/16 01:20:48;;;;;;;3.43;1.43;;;;;;;12.23;91.06;100222.00;5090688;28;20220;-76
2024/02/16 01:23:16;;;;;;;2.53;1.50;;;;;;;12.21;91.16;100226.41;5090559;28;20224;-76
2024/02/16 01:25:42;;;;;;;1.57;1.47;;;;;;;12.20;90.95;100219.44;5090179;28;20200;-76
2024/02/16 01:28:09;;;;;;;2.37;1.77;;;;;;;12.07;91.50;100224.19;5094220;28;20204;-76
2024/02/16 01:30:35;;;;;;;7.53;1.63;;;;;;;12.01;91.77;100208.69;5096469;28;20262;-76
2024/02/16 01:33:03;;;;;;;1.50;1.30;;;;;;;11.95;91.80;100202.75;5085633;28;20331;-76
2024/02/16 01:35:29;;;;;;;2.87;2.07;;;;;;;11.66;92.52;100199.16;5094133;28;20209;-76
2024/02/16 01:37:55;;;;;;;2.37;1.40;;;;;;;11.87;92.70;100197.69;5093796;28;20774;-76
2024/02/16 01:40:25;;;;;;;3.10;1.90;;;;;;;11.96;92.15;100201.84;5093979;28;20200;-76
2024/02/16 01:42:52;;;;;;;1.73;1.60;;;;;;;12.06;92.13;100212.00;5094769;28;20208;-76
2024/02/16 01:45:19;;;;;;;1.70;1.43;;;;;;;11.88;89.90;100238.66;5093769;28;20662;-76
2024/02/16 01:47:48;;;;;;;2.83;1.90;;;;;;;12.14;89.48;100266.72;5093675;28;20274;-77
2024/02/16 01:50:16;;;;;;;2.10;1.67;;;;;;;12.14;87.13;100299.91;5094339;28;20208;-76
2024/02/16 01:52:43;;;;;;;3.40;1.60;;;;;;;12.27;86.40;100317.84;5093683;28;20659;-76
2024/02/16 01:55:10;;;;;;;1.83;1.43;;;;;;;12.28;86.42;100340.47;5093459;28;20258;-76
2024/02/16 01:57:40;;;;;;;1.73;1.63;;;;;;;12.29;86.50;100341.34;5093653;28;20604;-76
2024/02/16 02:00:07;;;;;;;3.67;1.80;;;;;;;12.40;86.96;100341.88;5087198;28;20204;-76
2024/02/16 02:02:34;;;;;;;3.10;1.90;;;;;;;12.25;86.49;100337.06;5097324;28;20206;-76
2024/02/16 02:05:00;;;;;;;2.03;1.40;;;;;;;12.24;87.78;100315.28;5093860;28;20249;-76
2024/02/16 02:07:27;;;;;;;2.03;1.27;;;;;;;12.13;88.83;100304.28;5093257;28;20265;-75
2024/02/16 02:09:54;;;;;;;1.83;1.60;;;;;;;12.11;88.33;100303.47;5093751;28;20214;-75
2024/02/16 02:12:21;;;;;;;2.67;1.23;;;;;;;12.13;87.92;100306.91;5094225;28;20208;-76
2024/02/16 02:14:48;;;;;;;2.07;1.50;;;;;;;12.04;88.89;100297.53;5100165;28;20200;-75
2024/02/16 02:17:15;;;;;;;2.57;1.20;;;;;;;12.08;89.66;100269.53;5099872;28;20287;-75
2024/02/16 02:19:42;;;;;;;2.13;1.57;;;;;;;12.09;89.34;100258.13;5093842;28;20464;-75
2024/02/16 02:22:14;;;;;;;1.37;1.13;;;;;;;12.11;89.21;100253.75;5093188;28;20265;-76
2024/02/16 02:24:41;;;;;;;1.50;1.40;;;;;;;11.99;89.86;100246.22;5092995;28;20764;-76
2024/02/16 02:27:07;;;;;;;4.37;1.97;;;;;;;12.11;89.06;100258.97;5092938;28;20762;-76
2024/02/16 02:29:34;;;;;;;2.07;1.47;;;;;;;12.19;86.21;100293.63;5094247;28;20204;-75
2024/02/16 02:32:00;;;;;;;4.53;1.63;;;;;;;12.30;85.16;100345.66;5093533;28;20574;-76
2024/02/16 02:34:27;;;;;;;3.57;1.60;;;;;;;12.46;85.06;100356.56;5093101;28;20658;-76
2024/02/16 02:36:53;;;;;;;1.80;1.30;;;;;;;12.50;84.85;100363.44;5092542;28;20297;-76
2024/02/16 02:39:21;;;;;;;1.43;1.23;;;;;;;12.34;84.30;100370.84;5093331;28;20200;-76
2024/02/16 02:41:47;;;;;;;2.07;1.23;;;;;;;12.36;84.50;100376.06;5093046;28;20254;-76
2024/02/16 02:44:14;;;;;;;2.30;1.60;;;;;;;12.40;84.60;100375.06;5093387;28;20277;-75
2024/02/16 02:46:40;;;;;;;2.90;1.40;;;;;;;12.47;84.70;100374.00;5094693;28;20223;-76
2024/02/16 02:49:08;;;;;;;2.77;1.43;;;;;;;12.42;84.60;100363.66;5084338;28;20729;-76
2024/02/16 02:51:34;;;;;;;1.83;1.40;;;;;;;12.37;84.39;100362.06;5093014;28;20204;-76
2024/02/16 02:54:01;;;;;;;2.40;1.30;;;;;;;12.41;85.53;100342.78;5100647;28;20207;-74
2024/02/16 02:56:28;;;;;;;1.50;1.37;;;;;;;12.33;85.71;100335.13;5092418;28;20277;-76
2024/02/16 02:58:55;;;;;;;2.80;1.53;;;;;;;12.44;84.90;100327.81;5092914;28;20204;-76
2024/02/16 03:01:22;;;;;;;2.83;1.47;;;;;;;12.49;83.05;100365.22;5092076;28;20261;-76
2024/02/16 03:03:48;;;;;;;2.93;1.43;;;;;;;12.55;83.20;100382.50;5092465;28;20717;-76
2024/02/16 03:06:18;;;;;;;2.10;1.50;;;;;;;12.60;82.64;100387.59;5092280;28;20219;-76
2024/02/16 03:08:44;;;;;;;2.27;1.50;;;;;;;12.66;82.38;100400.53;5092605;28;20212;-75
2024/02/16 03:11:11;;;;;;;2.60;1.63;;;;;;;12.69;83.15;100408.31;5094038;28;20228;-76
2024/02/16 03:13:39;;;;;;;1.83;1.37;;;;;;;12.60;84.01;100391.06;5092547;28;20201;-76
2024/02/16 03:16:06;;;;;;;2.73;1.20;;;;;;;12.57;84.55;100372.84;5091444;28;20337;-75
2024/02/16 03:18:34;;;;;;;2.00;1.50;;;;;;;12.54;84.38;100351.13;5092414;28;20273;-76
2024/02/16 03:21:00;;;;;;;1.57;1.43;;;;;;;12.52;84.96;100348.53;5092585;28;20215;-75
2024/02/16 03:23:27;;;;;;;1.93;1.30;;;;;;;12.66;83.27;100358.63;5092244;28;20246;-76
2024/02/16 03:25:53;;;;;;;2.40;1.77;;;;;;;12.60;81.57;100387.59;5091601;28;20204;-76
2024/02/16 03:28:20;;;;;;;1.67;1.57;;;;;;;12.68;81.99;100393.47;5092228;28;20246;-76
2024/02/16 03:30:48;;;;;;;3.70;1.50;;;;;;;12.70;81.11;100423.09;5091884;28;20677;-75
2024/02/16 03:33:14;;;;;;;3.73;1.60;;;;;;;12.83;80.73;100440.19;5091580;28;20203;-76
2024/02/16 03:35:40;;;;;;;1.43;1.33;;;;;;;12.80;79.51;100470.84;5091727;28;20253;-75
2024/02/16 03:38:07;;;;;;;3.10;1.50;;;;;;;12.73;80.46;100477.19;5092818;28;20637;-76
2024/02/16 03:40:34;;;;;;;2.40;1.30;;;;;;;12.71;80.34;100472.81;5091890;28;20680;-76
2024/02/16 03:43:00;;;;;;;1.53;1.43;;;;;;;12.89;79.51;100460.13;5091971;28;20211;-76
2024/02/16 03:45:27;;;;;;;3.80;1.60;;;;;;;12.99;80.11;100481.69;5091461;28;20300;-75
2024/02/16 03:47:55;;;;;;;1.63;1.13;;;;;;;12.99;78.92;100492.19;5091412;28;20281;-76
2024/02/16 03:50:22;;;;;;;1.40;1.30;;;;;;;12.97;78.53;100514.94;5091536;28;20196;-76
2024/02/16 03:52:49;;;;;;;4.83;1.40;;;;;;;12.94;78.50;100509.78;5091649;28;20212;-76
2024/02/16 03:55:15;;;;;;;2.17;1.27;;;;;;;12.86;78.11;100526.56;5094344;28;20201;-75
2024/02/16 03:57:41;;;;;;;2.27;1.43;;;;;;;12.83;78.19;100538.88;5095935;28;20273;-76
2024/02/16 04:00:08;;;;;;;2.00;1.60;;;;;;;12.97;78.53;100526.28;5091238;28;20223;-76
2024/02/16 04:02:36;;;;;;;3.20;1.43;;;;;;;13.07;78.92;100519.03;5091355;28;20200;-76
2024/02/16 04:05:04;;;;;;;3.13;1.50;;;;;;;12.96;78.50;100532.41;5091171;28;20600;-76
2024/02/16 04:07:30;;;;;;;1.50;1.40;;;;;;;13.06;78.92;100522.53;5091386;28;20306;-76
2024/02/16 04:09:57;;;;;;;2.80;1.27;;;;;;;13.04;78.37;100533.06;5092446;28;20662;-76
2024/02/16 04:12:23;;;;;;;2.47;1.50;;;;;;;12.97;78.20;100542.00;5090794;28;20763;-76
2024/02/16 04:14:49;;;;;;;2.07;1.30;;;;;;;12.79;77.94;100532.88;5091413;28;20678;-76
2024/02/16 04:17:16;;;;;;;3.67;1.33;;;;;;;12.95;78.18;100535.94;5086228;28;20706;-76
2024/02/16 04:19:42;;;;;;;1.80;1.10;;;;;;;12.96;78.23;100528.94;5086977;28;20642;-76
2024/02/16 04:22:10;;;;;;;2.83;1.37;;;;;;;12.97;78.00;100531.50;5091157;28;20666;-76
2024/02/16 04:24:36;;;;;;;1.73;1.20;;;;;;;13.03;77.61;100548.84;5092286;28;20220;-76
2024/02/16 04:27:02;;;;;;;1.87;1.40;;;;;;;12.89;78.33;100533.47;5092524;28;20277;-76
2024/02/16 04:29:29;;;;;;;2.13;1.77;;;;;;;12.91;77.99;100532.53;5091257;28;20215;-76
2024/02/16 04:31:55;;;;;;;3.13;1.27;;;;;;;13.00;77.71;100544.53;5090785;28;20230;-76
2024/02/16 04:34:21;;;;;;;2.27;1.27;;;;;;;13.05;77.30;100547.88;5091557;28;20204;-76
2024/02/16 04:36:48;;;;;;;1.50;1.40;;;;;;;13.09;76.83;100562.63;5090669;28;20224;-76
2024/02/16 04:39:17;;;;;;;2.07;1.37;;;;;;;13.09;76.88;100573.09;5091259;28;20200;-76
2024/02/16 04:41:43;;;;;;;2.27;1.40;;;;;;;12.83;76.61;100575.56;5095168;28;20200;-76
2024/02/16 04:44:10;;;;;;;3.27;1.50;;;;;;;13.05;77.16;100562.75;5091553;28;20220;-76
2024/02/16 04:46:37;;;;;;;2.27;1.43;;;;;;;13.10;76.84;100558.22;5090372;28;20219;-77
2024/02/16 04:49:04;;;;;;;2.30;1.50;;;;;;;12.95;78.13;100533.31;5091451;28;20211;-76
2024/02/16 04:51:30;;;;;;;1.30;1.20;;;;;;;12.96;78.63;100507.97;5091347;28;20655;-76
2024/02/16 04:53:56;;;;;;;1.70;1.60;;;;;;;13.01;78.63;100503.47;5088242;28;20249;-75
2024/02/16 04:56:24;;;;;;;2.53;1.50;;;;;;;12.96;79.13;100487.00;5090153;28;20224;-75
2024/02/16 04:58:50;;;;;;;1.40;1.27;;;;;;;12.79;78.04;100503.19;5091438;28;20203;-76
2024/02/16 05:01:17;;;;;;;2.00;1.33;;;;;;;12.90;79.26;100483.66;5082473;28;20257;-76
2024/02/16 05:03:43;;;;;;;2.67;1.30;;;;;;;12.81;78.10;100483.91;5094962;28;20204;-76
2024/02/16 05:06:10;;;;;;;2.00;1.20;;;;;;;12.96;78.93;100485.22;5094495;28;20227;-76
2024/02/16 05:08:36;;;;;;;2.47;1.30;;;;;;;12.98;78.79;100474.72;5094870;28;20196;-76
2024/02/16 05:11:03;;;;;;;5.30;1.83;;;;;;;12.92;79.81;100467.88;5102327;28;20203;-75
2024/02/16 05:13:30;;;;;;;1.60;1.43;;;;;;;12.87;78.39;100475.03;5094880;28;20299;-76
2024/02/16 05:15:57;;;;;;;2.67;1.37;;;;;;;12.83;78.28;100500.44;5094026;28;20228;-76
2024/02/16 05:18:24;;;;;;;2.10;1.47;;;;;;;13.03;77.18;100517.38;5094645;28;20273;-76
2024/02/16 05:20:51;;;;;;;2.67;1.53;;;;;;;13.06;75.97;100527.75;5094800;28;20208;-76
2024/02/16 05:23:17;;;;;;;2.10;1.60;;;;;;;13.07;76.72;100538.22;5094142;28;20200;-76
2024/02/16 05:25:44;;;;;;;3.23;1.80;;;;;;;12.99;76.10;100545.44;5094061;28;20224;-76
2024/02/16 05:28:12;;;;;;;2.87;1.30;;;;;;;13.10;76.53;100564.34;5099905;28;20208;-76
2024/02/16 05:30:39;;;;;;;1.80;1.40;;;;;;;13.17;76.83;100557.16;5094212;28;20681;-77
2024/02/16 05:33:06;;;;;;;1.53;1.43;;;;;;;12.94;76.24;100555.16;5093967;28;20688;-76
2024/02/16 05:35:33;;;;;;;2.30;1.70;;;;;;;13.13;75.94;100546.81;5094060;28;20196;-76
2024/02/16 05:38:06;;;;;;;2.07;1.30;;;;;;;13.23;77.13;100529.94;5093802;28;20881;-76
2024/02/16 05:40:45;;;;;;;2.00;1.80;;;;;;;13.17;77.52;100528.34;5093509;28;20224;-76
2024/02/16 05:43:11;;;;;;;3.23;1.60;;;;;;;13.11;77.29;100525.88;5093165;28;20200;-76
2024/02/16 05:45:41;;;;;;;2.20;1.20;;;;;;;12.99;76.30;100537.56;5094743;28;20228;-75
2024/02/16 05:48:10;;;;;;;2.07;1.30;;;;;;;13.14;76.39;100538.94;5091930;28;20238;-76
2024/02/16 05:50:36;;;;;;;1.60;1.50;;;;;;;13.12;76.99;100527.59;5094076;28;20206;-76
2024/02/16 05:53:02;;;;;;;1.40;1.30;;;;;;;13.11;77.15;100521.50;5093970;28;20200;-76
2024/02/16 05:55:29;;;;;;;2.60;1.33;;;;;;;13.16;76.60;100529.25;5093613;28;20276;-76
2024/02/16 05:57:56;;;;;;;3.20;1.60;;;;;;;13.17;76.63;100525.72;5094066;28;20289;-76
2024/02/16 06:00:22;;;;;;;2.40;1.50;;;;;;;13.24;75.88;100529.91;5093860;28;20291;-76
2024/02/16 06:02:50;;;;;;;1.43;1.30;;;;;;;13.11;75.57;100555.56;5093453;28;20201;-76
2024/02/16 06:05:19;;;;;;;2.47;1.90;;;;;;;13.24;75.66;100549.97;5099583;28;20713;-76
2024/02/16 06:07:46;;;;;;;3.87;1.33;;;;;;;13.09;75.30;100562.63;5093534;28;20235;-76
2024/02/16 06:10:12;;;;;;;2.37;1.60;;;;;;;13.08;75.25;100567.88;5093536;28;20250;-76
2024/02/16 06:12:39;;;;;;;1.67;1.40;;;;;;;13.06;75.39;100562.72;5093493;28;20200;-76
2024/02/16 06:15:06;;;;;;;3.20;1.60;;;;;;;13.14;75.79;100559.88;5093080;28;20215;-76
2024/02/16 06:17:33;;;;;;;2.67;1.30;;;;;;;13.09;75.80;100546.88;5092813;28;20216;-76
2024/02/16 06:20:01;;;;;;;1.63;1.47;;;;;;;13.16;75.42;100558.09;5093301;28;20637;-75
2024/02/16 06:22:27;;;;;;;1.43;1.30;;;;;;;13.16;76.88;100549.34;5101026;28;20218;-75
2024/02/16 06:24:54;;;;;;;1.70;1.40;;;;;;;13.10;76.14;100543.38;5092746;28;20758;-76
2024/02/16 06:27:20;;;;;;;4.77;1.70;;;;;;;13.15;76.48;100537.16;5092648;28;20782;-75
2024/02/16 06:29:46;;;;;;;2.40;1.30;;;;;;;13.20;76.80;100514.28;5093044;28;20235;-75
2024/02/16 06:32:13;;;;;;;1.50;1.40;;;;;;;13.09;76.61;100504.97;5092039;28;20234;-75
2024/02/16 06:34:40;;;;;;;2.70;1.37;;;;;;;13.04;76.55;100519.09;5092603;28;20995;-76
2024/02/16 06:37:08;;;;;;;2.47;1.83;;;;;;;13.01;76.37;100524.44;5092893;28;20224;-75
2024/02/16 06:39:34;;;;;;;2.27;1.57;;;;;;;13.07;76.61;100513.78;5094911;28;20196;-76
2024/02/16 06:42:01;;;;;;;4.27;1.60;;;;;;;12.94;77.65;100500.13;5092639;28;20256;-75
2024/02/16 06:44:27;;;;;;;2.97;1.60;;;;;;;12.96;78.25;100487.84;5092627;28;20210;-76
2024/02/16 06:46:53;;;;;;;1.67;1.47;;;;;;;13.01;77.09;100493.00;5092181;28;20302;-76
2024/02/16 06:49:20;;;;;;;1.93;1.70;;;;;;;12.99;76.28;100510.50;5092285;28;20634;-76
2024/02/16 06:51:46;;;;;;;2.40;1.40;;;;;;;13.09;76.32;100519.84;5092740;28;20214;-76
2024/02/16 06:54:14;;;;;;;2.10;1.80;;;;;;;13.11;75.79;100531.97;5092977;28;20196;-76
2024/02/16 06:56:41;;;;;;;2.37;1.43;;;;;;;13.16;74.97;100549.34;5092163;28;20230;-76
2024/02/16 06:59:08;;;;;;;2.63;1.60;;;;;;;13.19;75.37;100560.59;5089824;28;20257;-76
2024/02/16 07:01:34;;;;;;;1.90;1.80;;;;;;;13.24;74.92;100576.19;5092138;28;20212;-76
2024/02/16 07:04:01;;;;;;;2.07;1.67;;;;;;;13.12;75.02;100577.38;5092585;28;20215;-76
2024/02/16 07:06:28;;;;;;;2.47;1.67;;;;;;;13.12;75.31;100580.00;5083921;28;20255;-76
2024/02/16 07:08:54;;;;;;;3.43;1.60;;;;;;;13.06;75.94;100572.31;5092326;28;20670;-75
2024/02/16 07:11:22;;;;;;;1.50;1.20;;;;;;;13.14;76.92;100559.00;5092751;28;20205;-76
2024/02/16 07:13:48;;;;;;;2.37;1.63;;;;;;;13.11;77.22;100539.00;5092479;28;20208;-76
2024/02/16 07:16:15;;;;;;;1.90;1.40;;;;;;;12.97;76.96;100512.31;5091281;28;20752;-76
2024/02/16 07:18:41;;;;;;;2.03;1.60;;;;;;;13.08;77.54;100511.13;5093144;28;20275;-78
2024/02/16 07:21:09;;;;;;;2.73;1.80;;;;;;;13.09;75.66;100546.03;5091276;28;20208;-76
2024/02/16 07:23:35;;;;;;;1.77;1.47;;;;;;;13.08;74.82;100563.53;5092706;28;20196;-76
2024/02/16 07:26:02;;;;;;;2.77;1.53;;;;;;;13.24;75.58;100563.97;5091546;28;20239;-77
2024/02/16 07:28:30;;;;;;;2.77;1.63;;;;;;;13.24;74.76;100578.81;5084708;28;20200;-77
2024/02/16 07:30:57;;;;;;;3.03;1.70;;;;;;;13.22;73.82;100599.84;5092657;28;20239;-77
2024/02/16 07:33:24;;;;;;;2.10;1.20;;;;;;;13.36;73.83;100624.84;5093586;28;20765;-78
2024/02/16 07:35:51;;;;;;;2.60;1.50;;;;;;;13.36;76.07;100628.34;5087585;28;20223;-78
2024/02/16 07:38:17;;;;;;;3.37;1.37;;;;;;;13.35;74.10;100621.38;5090752;28;20216;-76
2024/02/16 07:40:45;;;;;;;1.40;1.30;;;;;;;13.40;75.75;100610.75;5091588;28;20231;-76
2024/02/16 07:43:12;;;;;;;1.57;1.40;;;;;;;13.40;75.31;100605.50;5092091;28;20225;-77
2024/02/16 07:45:39;;;;;;;2.60;1.80;;;;;;;13.41;74.02;100615.09;5090843;28;20720;-77
2024/02/16 07:48:07;;;;;;;1.77;1.47;;;;;;;13.41;74.33;100626.44;5087647;28;20249;-76
2024/02/16 07:50:34;;;;;;;2.43;1.70;;;;;;;13.54;73.42;100632.22;5091746;28;20279;-75
2024/02/16 07:53:00;;;;;;;2.37;1.53;;;;;;;13.52;74.35;100636.66;5091669;28;20274;-76
2024/02/16 07:55:27;;;;;;;3.40;1.67;;;;;;;13.50;73.91;100635.84;5091403;28;20800;-76
2024/02/16 07:57:53;;;;;;;1.80;1.70;;;;;;;13.58;73.23;100646.13;5102887;28;20223;-78
2024/02/16 08:00:20;;;;;;;2.40;1.60;;;;;;;13.59;72.72;100653.91;5093482;28;20218;-77
2024/02/16 08:02:48;;;;;;;3.17;1.53;;;;;;;13.59;72.52;100666.19;5091746;28;20774;-78
2024/02/16 08:05:15;;;;;;;2.73;1.50;;;;;;;13.65;72.86;100672.09;5091552;28;20694;-78
2024/02/16 08:07:42;;;;;;;1.93;1.43;;;;;;;13.73;73.28;100669.25;5086675;28;20224;-78
2024/02/16 08:10:09;;;;;;;2.10;1.40;;;;;;;13.84;72.76;100661.09;5089567;28;20582;-78
2024/02/16 08:12:36;;;;;;;1.80;1.60;;;;;;;13.82;73.56;100655.03;5092119;28;20207;-77
2024/02/16 08:15:06;;;;;;;2.57;1.63;;;;;;;13.77;73.59;100649.91;5093088;28;20212;-77
2024/02/16 08:17:33;;;;;;;2.03;1.53;;;;;;;13.80;73.64;100652.47;5091519;28;20313;-77
2024/02/16 08:20:01;;;;;;;1.50;1.40;;;;;;;13.80;73.76;100649.84;5093457;28;20224;-78
2024/02/16 08:22:27;;;;;;;2.43;1.40;;;;;;;13.88;73.69;100654.88;5092505;28;20205;-78
2024/02/16 08:24:53;;;;;;;2.67;1.80;;;;;;;13.99;73.55;100642.25;5091875;28;20206;-77
2024/02/16 08:27:21;;;;;;;1.87;1.50;;;;;;;13.89;73.18;100646.94;5090936;28;20278;-78
2024/02/16 08:29:47;;;;;;;1.90;1.67;;;;;;;13.95;73.16;100642.41;5094237;28;20291;-77
2024/02/16 08:32:13;;;;;;;2.27;1.63;;;;;;;14.02;72.99;100650.06;5093074;28;20204;-77
2024/02/16 08:34:40;;;;;;;2.37;1.50;;;;;;;13.90;72.00;100674.03;5092387;28;21009;-77
2024/02/16 08:37:08;;;;;;;1.77;1.23;;;;;;;13.90;72.88;100667.03;5094379;28;20346;-78
2024/02/16 08:39:35;;;;;;;1.50;1.40;;;;;;;14.08;73.46;100672.66;5095766;28;20207;-76
2024/02/16 08:42:01;;;;;;;1.90;1.50;;;;;;;14.05;74.10;100647.34;5095867;28;20296;-77
2024/02/16 08:44:27;;;;;;;2.27;1.60;;;;;;;13.93;72.51;100650.31;5096154;28;20734;-76
2024/02/16 08:46:54;;;;;;;1.73;1.60;;;;;;;13.93;72.86;100659.97;5102523;28;20313;-76
2024/02/16 08:49:21;;;;;;;2.30;1.40;;;;;;;14.09;72.89;100664.72;5098553;28;20200;-77
2024/02/16 08:51:48;;;;;;;1.90;1.60;;;;;;;14.15;71.64;100670.69;5096412;28;20262;-77
2024/02/16 08:54:18;;;;;;;1.83;1.30;;;;;;;14.25;73.21;100670.38;5095370;28;20204;-77
2024/02/16 08:56:44;;;;;;;3.37;1.50;;;;;;;13.93;74.16;100662.59;5095767;28;20243;-78
2024/02/16 08:59:11;;;;;;;1.50;1.40;;;;;;;14.29;72.76;100661.50;5095499;28;20202;-78
2024/02/16 09:01:39;;;;;;;1.97;1.40;;;;;;;14.48;72.06;100689.81;5086326;28;20213;-77
2024/02/16 09:04:06;;;;;;;1.73;1.40;;;;;;;14.48;71.76;100690.66;5103312;28;20208;-78
2024/02/16 09:06:34;;;;;;;1.87;1.60;;;;;;;14.63;71.23;100709.53;5095907;28;20265;-78
2024/02/16 09:09:01;;;;;;;1.50;1.40;;;;;;;14.77;71.76;100703.84;5095084;28;20205;-76
2024/02/16 09:11:29;;;;;;;1.50;1.40;;;;;;;14.87;73.25;100682.44;5094566;28;20568;-77
2024/02/16 09:13:55;;;;;;;1.40;1.30;;;;;;;14.87;70.94;100705.25;5095322;28;20249;-76
2024/02/16 09:16:21;;;;;;;1.87;1.57;;;;;;;14.90;71.01;100715.66;5094053;28;20275;-79
2024/02/16 09:18:48;;;;;;;2.23;1.50;;;;;;;14.96;72.62;100701.47;5095342;28;20562;-76
2024/02/16 09:21:15;;;;;;;2.40;1.33;;;;;;;14.89;71.19;100717.44;5102853;28;20299;-77
2024/02/16 09:23:41;;;;;;;1.57;1.40;;;;;;;14.83;70.86;100712.38;5095945;28;20209;-79
2024/02/16 09:26:09;;;;;;;1.83;1.67;;;;;;;14.99;71.48;100712.72;5094529;28;20230;-76
2024/02/16 09:28:40;;;;;;;1.87;1.40;;;;;;;15.08;71.54;100719.44;5095610;28;20253;-77
2024/02/16 09:31:07;;;;;;;2.30;1.60;;;;;;;15.05;70.67;100722.19;5094586;28;20207;-77
2024/02/16 09:33:33;;;;;;;2.10;1.90;;;;;;;15.18;71.67;100712.13;5094644;28;20215;-77
2024/02/16 09:36:00;;;;;;;1.93;1.70;;;;;;;15.15;71.83;100702.56;5092654;28;20225;-78
2024/02/16 09:38:26;;;;;;;1.60;1.50;;;;;;;15.08;71.15;100722.97;5095302;28;20247;-77
2024/02/16 09:40:53;;;;;;;1.90;1.40;;;;;;;14.97;70.58;100745.25;5094745;28;20251;-78
2024/02/16 09:43:26;;;;;;;1.93;1.50;;;;;;;15.14;71.66;100727.13;5095560;28;20208;-77
2024/02/16 09:45:55;;;;;;;1.80;1.60;;;;;;;15.08;71.05;100745.75;5095598;28;20278;-78
2024/02/16 09:48:22;;;;;;;2.67;1.20;;;;;;;15.04;71.37;100750.25;5094336;28;20646;-78
2024/02/16 09:50:49;;;;;;;2.50;1.30;;;;;;;14.99;70.52;100757.44;5096204;28;20209;-78
2024/02/16 09:53:17;;;;;;;1.20;1.10;;;;;;;15.25;70.96;100758.34;5095505;28;20204;-81
2024/02/16 09:55:44;;;;;;;1.97;1.60;;;;;;;15.32;69.82;100775.66;5098415;28;20227;-78
2024/02/16 09:58:16;;;;;;;1.40;1.30;;;;;;;15.30;70.31;100766.94;5094001;28;20210;-77
2024/02/16 10:00:43;;;;;;;2.17;1.43;;;;;;;15.43;71.23;100762.13;5093876;28;20708;-77
2024/02/16 10:03:22;;;;;;;2.13;1.70;;;;;;;15.43;72.35;100722.66;5093471;28;20702;-76
2024/02/16 10:05:48;;;;;;;2.20;1.77;;;;;;;15.54;72.41;100712.66;5094879;28;20258;-78
2024/02/16 10:08:15;;;;;;;2.27;1.60;;;;;;;15.49;71.14;100722.47;5096602;28;20621;-78
2024/02/16 10:10:42;;;;;;;1.90;1.43;;;;;;;15.60;73.03;100691.38;5096781;28;20202;-78
2024/02/16 10:13:11;;;;;;;3.03;1.87;;;;;;;15.57;72.26;100694.09;5099821;28;20216;-78
2024/02/16 10:15:38;;;;;;;4.23;1.63;;;;;;;15.61;75.00;100658.88;5093055;28;20288;-77
2024/02/16 10:18:05;;;;;;;1.73;1.63;;;;;;;15.61;72.17;100658.00;5093732;28;20624;-77
2024/02/16 10:20:35;;;;;;;2.37;1.67;;;;;;;15.66;72.05;100693.78;5089106;28;20213;-77
2024/02/16 10:23:08;;;;;;;2.03;1.63;;;;;;;15.54;71.05;100717.91;5092986;28;20201;-77
2024/02/16 10:25:36;;;;;;;3.30;1.63;;;;;;;15.56;70.24;100737.13;5092812;28;20206;-78
2024/02/16 10:28:05;;;;;;;1.73;1.60;;;;;;;15.64;71.32;100744.75;5088347;28;20313;-77
2024/02/16 10:30:36;;;;;;;2.50;1.70;;;;;;;15.65;71.90;100730.66;5094639;28;20425;-77
2024/02/16 10:33:03;;;;;;;1.80;1.50;;;;;;;15.71;71.77;100732.22;5092989;28;20294;-77
2024/02/16 10:35:30;;;;;;;2.67;1.83;;;;;;;15.55;70.06;100745.91;5092879;28;20618;-77
2024/02/16 10:37:59;;;;;;;1.67;1.57;;;;;;;15.66;70.42;100750.81;5092981;28;20230;-77
2024/02/16 10:40:28;;;;;;;2.07;1.40;;;;;;;15.63;70.55;100754.41;5092697;28;20207;-77
2024/02/16 10:42:55;;;;;;;2.77;1.67;;;;;;;15.76;70.98;100756.66;5092982;28;20259;-77
2024/02/16 10:45:22;;;;;;;3.73;1.90;;;;;;;15.78;71.27;100754.84;5092371;28;20208;-77
2024/02/16 10:47:48;;;;;;;2.23;1.70;;;;;;;15.69;69.61;100761.22;5093347;28;20291;-77
2024/02/16 10:50:15;;;;;;;3.67;1.70;;;;;;;15.88;69.94;100780.75;5093000;28;20256;-77
2024/02/16 10:52:46;;;;;;;1.80;1.70;;;;;;;15.86;70.98;100779.97;5092671;28;20265;-77
2024/02/16 10:55:15;;;;;;;2.60;1.73;;;;;;;15.67;68.57;100784.09;5092208;28;20268;-77
2024/02/16 10:57:42;;;;;;;2.67;1.60;;;;;;;15.92;70.05;100788.56;5092826;28;20223;-77
2024/02/16 11:00:10;;;;;;;2.80;1.60;;;;;;;16.00;71.28;100752.28;5091751;28;20206;-77
2024/02/16 11:02:52;;;;;;;1.87;1.77;;;;;;;15.96;70.06;100758.56;5092073;28;20375;-77
2024/02/16 11:05:19;;;;;;;2.00;1.57;;;;;;;15.81;70.37;100763.44;5096807;28;20267;-76
2024/02/16 11:07:46;;;;;;;2.00;1.53;;;;;;;16.01;70.44;100757.47;5091871;28;20253;-77
2024/02/16 11:10:14;;;;;;;1.70;1.60;;;;;;;16.06;70.89;100763.44;5092922;28;20255;-77
2024/02/16 11:12:46;;;;;;;2.53;1.70;;;;;;;15.99;68.75;100785.63;5092308;28;20247;-79
2024/02/16 11:15:14;;;;;;;1.83;1.50;;;;;;;15.99;68.78;100784.78;5094112;28;20206;-79
2024/02/16 11:17:40;;;;;;;2.47;1.43;;;;;;;16.11;69.00;100794.88;5093081;28;20702;-78
2024/02/16 11:20:08;;;;;;;2.67;1.50;;;;;;;16.07;69.75;100782.72;5089000;28;20217;-80
2024/02/16 11:22:38;;;;;;;2.07;1.87;;;;;;;16.07;69.68;100769.56;5097126;28;20199;-77